Time;durP1;ratioP1;P1;durP2;ratioP2;P2;SDS_P1;SDS_P2;PMS_P1;PMS_P2;Temp;Humidity;BMP_temperature;BMP_pressure;BME280_temperature;BME280_humidity;BME280_pressure;Samples;Min_cycle;Max_cycle;Signal;HPM_P1;HPM_P2
2023/06/08 00:00:51;;;;;;;9.00;4.85;;;;;;;;;;2033472;29;20040;-88
2023/06/08 00:01:52;;;;;;;6.55;4.32;;;;;;;;;;2031843;29;20030;-87
2023/06/08 00:02:55;;;;;;;4.95;4.10;;;;;;;;;;2031160;29;20043;-87
2023/06/08 00:03:56;;;;;;;6.72;4.28;;;;;;;;;;2023666;29;20108;-88
2023/06/08 00:04:57;;;;;;;5.82;4.47;;;;;;;;;;2033593;29;20034;-86
2023/06/08 00:05:59;;;;;;;5.88;4.00;;;;;;;;;;2044593;29;20198;-87
2023/06/08 00:07:03;;;;;;;4.97;4.47;;;;;;;;;;2039294;29;20106;-88
2023/06/08 00:08:03;;;;;;;4.80;3.95;;;;;;;;;;2031970;29;20032;-88
2023/06/08 00:09:04;;;;;;;6.85;4.40;;;;;;;;;;2032023;29;20132;-88
2023/06/08 00:10:05;;;;;;;6.13;4.93;;;;;;;;;;2032077;29;20031;-88
2023/06/08 00:11:05;;;;;;;5.38;4.30;;;;;;;;;;2031457;29;20419;-88
2023/06/08 00:12:06;;;;;;;4.43;3.83;;;;;;;;;;2031327;29;20028;-88
2023/06/08 00:13:07;;;;;;;6.18;4.75;;;;;;;;;;2031578;29;20028;-88
2023/06/08 00:14:07;;;;;;;5.18;3.88;;;;;;;;;;2023484;29;20123;-88
2023/06/08 00:15:08;;;;;;;5.50;4.00;;;;;;;;;;2023620;29;20112;-87
2023/06/08 00:16:09;;;;;;;6.68;4.30;;;;;;;;;;2023534;29;20021;-88
2023/06/08 00:17:10;;;;;;;6.05;3.90;;;;;;;;;;2031416;29;20036;-88
2023/06/08 00:18:10;;;;;;;6.85;3.88;;;;;;;;;;2031345;29;20028;-88
2023/06/08 00:19:11;;;;;;;6.65;4.10;;;;;;;;;;2023018;29;20024;-88
2023/06/08 00:20:11;;;;;;;5.00;4.57;;;;;;;;;;2030948;29;20024;-88
2023/06/08 00:21:12;;;;;;;5.35;4.15;;;;;;;;;;2031463;29;20094;-88
2023/06/08 00:22:13;;;;;;;7.05;4.18;;;;;;;;;;2030668;29;20040;-88
2023/06/08 00:23:15;;;;;;;7.10;4.10;;;;;;;;;;2030844;29;20032;-88
2023/06/08 00:24:21;;;;;;;5.43;4.05;;;;;;;;;;2030891;29;20048;-88
2023/06/08 00:25:21;;;;;;;6.53;4.78;;;;;;;;;;2031141;29;20036;-88
2023/06/08 00:26:22;;;;;;;4.47;3.78;;;;;;;;;;2030814;29;20028;-88
2023/06/08 00:27:22;;;;;;;4.35;3.92;;;;;;;;;;2030879;29;20032;-88
2023/06/08 00:28:23;;;;;;;4.70;3.45;;;;;;;;;;2031472;29;20032;-87
2023/06/08 00:29:24;;;;;;;5.85;3.80;;;;;;;;;;2031491;29;20470;-88
2023/06/08 00:30:24;;;;;;;6.55;4.13;;;;;;;;;;2031665;29;20326;-87
2023/06/08 00:31:25;;;;;;;7.07;3.70;;;;;;;;;;2031504;29;20434;-87
2023/06/08 00:32:25;;;;;;;4.68;4.03;;;;;;;;;;2031649;29;20028;-88
2023/06/08 00:33:25;;;;;;;4.30;3.72;;;;;;;;;;2031438;29;20504;-88
2023/06/08 00:34:27;;;;;;;7.78;3.85;;;;;;;;;;1683107;29;10280474;-88
2023/06/08 00:35:27;;;;;;;6.43;4.43;;;;;;;;;;2037091;29;20119;-88
2023/06/08 00:36:27;;;;;;;5.63;4.60;;;;;;;;;;2032149;29;20040;-88
2023/06/08 00:37:28;;;;;;;5.55;4.63;;;;;;;;;;2023835;29;20060;-90
2023/06/08 00:38:28;;;;;;;6.32;4.18;;;;;;;;;;2031667;29;20028;-87
2023/06/08 00:39:30;;;;;;;5.30;4.15;;;;;;;;;;2031665;29;20039;-87
2023/06/08 00:40:32;;;;;;;6.38;4.38;;;;;;;;;;2031791;29;20044;-89
2023/06/08 00:41:32;;;;;;;9.02;4.50;;;;;;;;;;2032549;29;20043;-88
2023/06/08 00:42:33;;;;;;;5.25;3.97;;;;;;;;;;2032361;29;20044;-90
2023/06/08 00:43:36;;;;;;;4.68;4.18;;;;;;;;;;2031588;29;20064;-89
2023/06/08 00:44:36;;;;;;;7.13;4.32;;;;;;;;;;2031594;29;20103;-88
2023/06/08 00:45:36;;;;;;;5.45;4.35;;;;;;;;;;2032767;29;20028;-88
2023/06/08 00:46:37;;;;;;;6.57;4.47;;;;;;;;;;2031703;29;20054;-88
2023/06/08 00:47:38;;;;;;;5.15;4.13;;;;;;;;;;2031672;29;20491;-87
2023/06/08 00:48:39;;;;;;;5.93;4.60;;;;;;;;;;2032090;29;20028;-89
2023/06/08 00:49:40;;;;;;;8.45;3.90;;;;;;;;;;2031684;29;20127;-88
2023/06/08 00:50:41;;;;;;;8.05;3.85;;;;;;;;;;2032357;29;20036;-89
2023/06/08 00:51:42;;;;;;;10.82;4.65;;;;;;;;;;2032911;29;20066;-89
2023/06/08 00:52:44;;;;;;;5.07;3.70;;;;;;;;;;2025039;29;20422;-89
2023/06/08 00:53:46;;;;;;;5.75;4.15;;;;;;;;;;2033243;29;20461;-89
2023/06/08 00:54:48;;;;;;;6.95;4.68;;;;;;;;;;2033021;29;20552;-89
2023/06/08 00:55:52;;;;;;;6.80;4.32;;;;;;;;;;2039029;29;20095;-88
2023/06/08 00:56:55;;;;;;;5.85;4.35;;;;;;;;;;2036081;29;20031;-89
2023/06/08 00:57:55;;;;;;;7.20;4.63;;;;;;;;;;2032912;29;20057;-89
2023/06/08 00:58:56;;;;;;;4.80;3.75;;;;;;;;;;2025303;29;20033;-89
2023/06/08 00:59:59;;;;;;;7.50;4.60;;;;;;;;;;2033516;29;20024;-89
2023/06/08 01:01:01;;;;;;;5.22;3.72;;;;;;;;;;2033835;29;20028;-89
2023/06/08 01:02:04;;;;;;;5.28;4.15;;;;;;;;;;2032984;29;20024;-89
2023/06/08 01:03:04;;;;;;;10.45;4.20;;;;;;;;;;2032899;29;20199;-89
2023/06/08 01:04:08;;;;;;;5.57;4.72;;;;;;;;;;2033257;29;20087;-89
2023/06/08 01:05:09;;;;;;;6.93;4.20;;;;;;;;;;2033151;29;20032;-88
2023/06/08 01:06:12;;;;;;;6.78;3.88;;;;;;;;;;2033512;29;20043;-88
2023/06/08 01:07:27;;;;;;;6.88;4.85;;;;;;;;;;2032680;29;20024;-88
2023/06/08 01:08:35;;;;;;;6.60;3.90;;;;;;;;;;1693746;29;10004147;-88
2023/06/08 01:09:54;;;;;;;6.40;4.40;;;;;;;;;;2033024;29;20258;-89
2023/06/08 01:11:17;;;;;;;5.90;4.60;;;;;;;;;;2033913;29;20062;-89
2023/06/08 01:12:34;;;;;;;5.47;4.05;;;;;;;;;;2033825;29;20016;-93
2023/06/08 01:13:53;;;;;;;5.18;3.80;;;;;;;;;;2034128;29;20024;-93
2023/06/08 01:15:27;;;;;;;5.72;4.47;;;;;;;;;;2033406;29;20039;-93
2023/06/08 01:16:32;;;;;;;7.25;4.70;;;;;;;;;;1690453;29;10105849;-94
2023/06/08 01:17:47;;;;;;;5.97;4.40;;;;;;;;;;2033871;29;20024;-93
2023/06/08 01:18:48;;;;;;;4.68;4.07;;;;;;;;;;2034186;29;20114;-92
2023/06/08 01:20:17;;;;;;;6.00;4.25;;;;;;;;;;2033628;29;20032;-93
2023/06/08 01:21:24;;;;;;;4.93;3.92;;;;;;;;;;2029311;29;20024;-92
2023/06/08 01:22:48;;;;;;;5.38;3.83;;;;;;;;;;2034483;29;20028;-94
2023/06/08 01:24:03;;;;;;;7.60;4.38;;;;;;;;;;2033522;29;20028;-92
2023/06/08 01:25:04;;;;;;;6.30;4.25;;;;;;;;;;2033155;29;20055;-93
2023/06/08 01:26:05;;;;;;;5.07;4.35;;;;;;;;;;2025004;29;20048;-92
2023/06/08 01:27:07;;;;;;;8.75;4.70;;;;;;;;;;2025386;29;20020;-92
2023/06/08 01:28:13;;;;;;;5.60;4.85;;;;;;;;;;2033439;29;20028;-93
2023/06/08 01:29:15;;;;;;;6.55;4.50;;;;;;;;;;2033217;29;20091;-93
2023/06/08 01:30:15;;;;;;;7.78;5.25;;;;;;;;;;2033343;29;20080;-94
2023/06/08 01:31:16;;;;;;;6.72;4.57;;;;;;;;;;2025487;29;20025;-94
2023/06/08 01:32:19;;;;;;;6.20;4.45;;;;;;;;;;2033389;29;20016;-93
2023/06/08 01:33:21;;;;;;;7.18;4.40;;;;;;;;;;2033520;29;20048;-92
2023/06/08 01:34:22;;;;;;;10.40;4.45;;;;;;;;;;2033695;29;20031;-91
2023/06/08 01:35:22;;;;;;;6.43;4.43;;;;;;;;;;2033430;29;20028;-93
2023/06/08 01:36:34;;;;;;;6.80;4.95;;;;;;;;;;2033104;29;20032;-93
2023/06/08 01:37:54;;;;;;;6.45;4.28;;;;;;;;;;2026631;29;20024;-93
2023/06/08 01:39:05;;;;;;;6.70;4.03;;;;;;;;;;2033586;29;20039;-93
2023/06/08 01:40:18;;;;;;;4.90;4.40;;;;;;;;;;2034089;29;20111;-93
2023/06/08 01:41:28;;;;;;;7.05;4.60;;;;;;;;;;2035385;29;20458;-92
2023/06/08 01:42:29;;;;;;;8.10;4.45;;;;;;;;;;2035503;29;20048;-92
2023/06/08 01:43:33;;;;;;;5.20;4.40;;;;;;;;;;2035158;29;20552;-93
2023/06/08 01:44:39;;;;;;;8.40;4.50;;;;;;;;;;2033343;29;20516;-92
2023/06/08 01:45:49;;;;;;;8.20;4.90;;;;;;;;;;2030870;29;20084;-92
2023/06/08 01:46:56;;;;;;;5.80;4.30;;;;;;;;;;2040641;29;20035;-93
2023/06/08 01:48:03;;;;;;;5.93;4.60;;;;;;;;;;2033866;29;20032;-93
2023/06/08 01:49:05;;;;;;;8.88;5.13;;;;;;;;;;2032840;29;20024;-94
2023/06/08 01:50:07;;;;;;;6.87;4.37;;;;;;;;;;1691378;29;10063682;-92
2023/06/08 01:51:08;;;;;;;6.82;4.80;;;;;;;;;;2032510;29;20807;-91
2023/06/08 01:52:09;;;;;;;5.32;4.70;;;;;;;;;;2024625;29;20027;-91
2023/06/08 01:53:11;;;;;;;6.07;4.50;;;;;;;;;;2024643;29;20059;-92
2023/06/08 01:54:11;;;;;;;5.80;4.78;;;;;;;;;;2024523;29;20024;-92
2023/06/08 01:55:19;;;;;;;8.77;5.18;;;;;;;;;;2032275;29;20524;-92
2023/06/08 01:56:20;;;;;;;8.35;4.75;;;;;;;;;;2032207;29;20071;-92
2023/06/08 01:57:21;;;;;;;6.57;4.45;;;;;;;;;;2032512;29;20087;-92
2023/06/08 01:58:21;;;;;;;9.05;5.10;;;;;;;;;;2032577;29;20036;-92
2023/06/08 01:59:22;;;;;;;7.10;4.90;;;;;;;;;;2032413;29;20028;-92
2023/06/08 02:00:22;;;;;;;5.47;4.20;;;;;;;;;;2024687;29;20115;-92
2023/06/08 02:01:23;;;;;;;7.68;4.70;;;;;;;;;;2031814;29;20032;-92
2023/06/08 02:02:23;;;;;;;5.97;4.40;;;;;;;;;;2032436;29;20813;-92
2023/06/08 02:03:24;;;;;;;6.45;4.50;;;;;;;;;;2032611;29;20538;-93
2023/06/08 02:04:24;;;;;;;4.85;4.00;;;;;;;;;;2031499;29;20028;-92
2023/06/08 02:05:25;;;;;;;5.28;4.25;;;;;;;;;;2034662;29;20114;-92
2023/06/08 02:06:25;;;;;;;8.43;4.32;;;;;;;;;;2034535;29;20039;-92
2023/06/08 02:07:26;;;;;;;5.18;4.07;;;;;;;;;;2041891;29;20028;-92
2023/06/08 02:08:26;;;;;;;8.07;4.25;;;;;;;;;;2041483;29;20043;-92
2023/06/08 02:09:27;;;;;;;7.13;4.72;;;;;;;;;;2038233;29;20038;-92
2023/06/08 02:10:28;;;;;;;9.00;4.57;;;;;;;;;;2034137;29;20027;-93
2023/06/08 02:11:29;;;;;;;5.35;4.32;;;;;;;;;;2033517;29;20443;-92
2023/06/08 02:12:29;;;;;;;5.65;3.95;;;;;;;;;;2032927;29;20051;-92
2023/06/08 02:13:30;;;;;;;4.80;3.97;;;;;;;;;;2032736;29;20032;-92
2023/06/08 02:14:30;;;;;;;5.18;4.20;;;;;;;;;;2032598;29;20458;-93
2023/06/08 02:15:31;;;;;;;6.35;4.57;;;;;;;;;;2032346;29;20028;-92
2023/06/08 02:16:33;;;;;;;5.95;4.22;;;;;;;;;;2032234;29;20072;-92
2023/06/08 02:17:35;;;;;;;4.22;3.85;;;;;;;;;;2032083;29;20024;-92
2023/06/08 02:18:40;;;;;;;6.32;4.35;;;;;;;;;;2025095;29;20051;-92
2023/06/08 02:19:40;;;;;;;6.53;4.10;;;;;;;;;;2032699;29;20050;-92
2023/06/08 02:20:41;;;;;;;8.25;4.60;;;;;;;;;;2032473;29;20024;-92
2023/06/08 02:21:41;;;;;;;5.07;4.43;;;;;;;;;;2032401;29;20465;-92
2023/06/08 02:22:42;;;;;;;7.45;4.43;;;;;;;;;;2033313;29;20024;-92
2023/06/08 02:23:42;;;;;;;5.95;4.70;;;;;;;;;;2033735;29;20122;-92
2023/06/08 02:24:43;;;;;;;8.20;4.95;;;;;;;;;;2030456;29;20029;-92
2023/06/08 02:25:43;;;;;;;6.47;5.03;;;;;;;;;;2032387;29;20039;-92
2023/06/08 02:26:44;;;;;;;6.30;4.60;;;;;;;;;;2039741;29;20028;-92
2023/06/08 02:27:44;;;;;;;7.60;4.90;;;;;;;;;;2027828;29;20050;-91
2023/06/08 02:28:45;;;;;;;6.97;4.43;;;;;;;;;;2034093;29;20111;-91
2023/06/08 02:29:45;;;;;;;9.68;5.45;;;;;;;;;;2033469;29;20035;-92
2023/06/08 02:30:45;;;;;;;6.47;4.88;;;;;;;;;;2032136;29;20376;-91
2023/06/08 02:31:46;;;;;;;6.15;4.68;;;;;;;;;;2032026;29;20488;-92
2023/06/08 02:32:47;;;;;;;6.78;4.65;;;;;;;;;;2031757;29;20091;-92
2023/06/08 02:33:47;;;;;;;6.43;4.47;;;;;;;;;;2031981;29;20522;-92
2023/06/08 02:34:55;;;;;;;6.53;4.40;;;;;;;;;;2032611;29;20028;-93
2023/06/08 02:35:56;;;;;;;7.13;4.63;;;;;;;;;;2040410;29;20042;-91
2023/06/08 02:36:57;;;;;;;6.76;4.56;;;;;;;;;;1701068;28;10000555;-91
2023/06/08 02:37:58;;;;;;;5.70;4.57;;;;;;;;;;2034679;29;20051;-91
2023/06/08 02:38:58;;;;;;;8.57;5.00;;;;;;;;;;2032314;29;20040;-91
2023/06/08 02:40:00;;;;;;;7.47;4.82;;;;;;;;;;2032012;29;20020;-91
2023/06/08 02:41:00;;;;;;;6.35;4.55;;;;;;;;;;2031956;29;20032;-92
2023/06/08 02:42:01;;;;;;;6.55;4.85;;;;;;;;;;2032202;29;20028;-91
2023/06/08 02:43:02;;;;;;;9.27;5.30;;;;;;;;;;2031740;29;20516;-91
2023/06/08 02:44:03;;;;;;;6.20;4.47;;;;;;;;;;2031685;29;20095;-92
2023/06/08 02:45:03;;;;;;;6.03;4.43;;;;;;;;;;2031789;29;20071;-92
2023/06/08 02:46:04;;;;;;;7.50;4.75;;;;;;;;;;2031617;29;20055;-91
2023/06/08 02:47:05;;;;;;;9.10;4.47;;;;;;;;;;2023753;29;20189;-93
2023/06/08 02:48:05;;;;;;;5.15;4.13;;;;;;;;;;2024007;29;20305;-92
2023/06/08 02:49:06;;;;;;;8.55;4.75;;;;;;;;;;2023812;29;20027;-93
2023/06/08 02:50:07;;;;;;;5.68;4.30;;;;;;;;;;2023822;29;20047;-92
2023/06/08 02:51:07;;;;;;;5.35;4.78;;;;;;;;;;2031816;29;20027;-92
2023/06/08 02:52:08;;;;;;;6.90;4.78;;;;;;;;;;2031906;29;20087;-92
2023/06/08 02:53:08;;;;;;;6.35;4.55;;;;;;;;;;2032326;29;20020;-92
2023/06/08 02:54:08;;;;;;;7.63;4.90;;;;;;;;;;2031679;29;20063;-91
2023/06/08 02:55:09;;;;;;;7.15;4.63;;;;;;;;;;2031810;29;20024;-92
2023/06/08 02:56:09;;;;;;;6.57;4.55;;;;;;;;;;2023768;29;20060;-91
2023/06/08 02:57:10;;;;;;;7.18;4.38;;;;;;;;;;2031601;29;20024;-91
2023/06/08 02:58:10;;;;;;;6.25;4.70;;;;;;;;;;2031548;29;20024;-92
2023/06/08 02:59:11;;;;;;;6.43;5.03;;;;;;;;;;2023864;29;20020;-92
2023/06/08 03:00:12;;;;;;;5.53;4.38;;;;;;;;;;2023797;29;20044;-92
2023/06/08 03:01:16;;;;;;;4.68;4.20;;;;;;;;;;2023842;29;20425;-91
2023/06/08 03:02:17;;;;;;;6.15;4.22;;;;;;;;;;2024108;29;20028;-92
2023/06/08 03:03:21;;;;;;;5.85;3.85;;;;;;;;;;2031857;29;20036;-92
2023/06/08 03:04:30;;;;;;;5.75;4.07;;;;;;;;;;2031806;29;20039;-91
2023/06/08 03:05:34;;;;;;;6.93;4.22;;;;;;;;;;2024884;29;20488;-92
2023/06/08 03:06:36;;;;;;;6.80;4.30;;;;;;;;;;2024134;29;20044;-92
2023/06/08 03:07:40;;;;;;;5.18;4.30;;;;;;;;;;2023714;29;20481;-92
2023/06/08 03:08:40;;;;;;;7.38;3.85;;;;;;;;;;2031344;29;20409;-91
2023/06/08 03:09:42;;;;;;;6.00;3.90;;;;;;;;;;2031442;29;20151;-92
2023/06/08 03:10:44;;;;;;;5.25;3.63;;;;;;;;;;2023625;29;20028;-92
2023/06/08 03:11:44;;;;;;;8.00;4.47;;;;;;;;;;2023818;29;20035;-92
2023/06/08 03:12:45;;;;;;;5.07;4.00;;;;;;;;;;2031296;29;20028;-92
2023/06/08 03:13:46;;;;;;;6.35;3.80;;;;;;;;;;2031162;29;20546;-92
2023/06/08 03:14:50;;;;;;;4.30;3.90;;;;;;;;;;2023782;29;20056;-91
2023/06/08 03:15:52;;;;;;;4.83;4.33;;;;;;;;;;1683081;29;10102262;-92
2023/06/08 03:16:53;;;;;;;6.07;4.43;;;;;;;;;;2031534;29;20019;-91
2023/06/08 03:17:53;;;;;;;6.63;3.95;;;;;;;;;;2032015;29;20024;-91
2023/06/08 03:18:53;;;;;;;6.10;4.28;;;;;;;;;;2031169;29;20095;-91
2023/06/08 03:19:55;;;;;;;5.55;3.80;;;;;;;;;;2023642;29;20032;-91
2023/06/08 03:20:57;;;;;;;8.25;5.07;;;;;;;;;;2031406;29;20110;-91
2023/06/08 03:22:04;;;;;;;7.68;3.95;;;;;;;;;;2023459;29;20129;-91
2023/06/08 03:23:04;;;;;;;5.70;4.10;;;;;;;;;;2024258;29;20534;-91
2023/06/08 03:24:05;;;;;;;7.15;4.20;;;;;;;;;;2031527;29;20024;-91
2023/06/08 03:25:07;;;;;;;10.30;4.85;;;;;;;;;;2031592;29;20032;-92
2023/06/08 03:26:08;;;;;;;4.93;4.13;;;;;;;;;;2034173;29;20032;-92
2023/06/08 03:27:10;;;;;;;7.68;4.35;;;;;;;;;;2038178;29;20024;-91
2023/06/08 03:28:10;;;;;;;6.97;4.47;;;;;;;;;;2036900;29;20028;-92
2023/06/08 03:29:11;;;;;;;6.75;4.25;;;;;;;;;;2031774;29;20054;-92
2023/06/08 03:30:11;;;;;;;6.22;4.07;;;;;;;;;;2023880;29;20115;-92
2023/06/08 03:31:12;;;;;;;8.82;4.57;;;;;;;;;;2032325;29;20024;-92
2023/06/08 03:32:13;;;;;;;7.28;4.47;;;;;;;;;;2031793;29;20028;-91
2023/06/08 03:33:14;;;;;;;7.25;5.05;;;;;;;;;;2024039;29;20406;-91
2023/06/08 03:34:16;;;;;;;11.25;5.45;;;;;;;;;;2024046;29;20445;-91
2023/06/08 03:35:16;;;;;;;10.23;5.47;;;;;;;;;;2031770;29;20145;-92
2023/06/08 03:36:18;;;;;;;15.60;8.02;;;;;;;;;;2031588;29;20458;-92
2023/06/08 03:37:18;;;;;;;17.35;8.40;;;;;;;;;;2031607;29;20028;-92
2023/06/08 03:38:18;;;;;;;20.00;10.95;;;;;;;;;;2031588;29;20028;-91
2023/06/08 03:39:19;;;;;;;23.38;10.10;;;;;;;;;;2031915;29;20057;-92
2023/06/08 03:40:19;;;;;;;24.90;12.13;;;;;;;;;;2031835;29;20082;-92
2023/06/08 03:41:20;;;;;;;24.70;11.40;;;;;;;;;;2023780;29;20146;-92
2023/06/08 03:42:20;;;;;;;21.52;10.13;;;;;;;;;;2024091;29;20028;-92
2023/06/08 03:43:20;;;;;;;21.67;10.70;;;;;;;;;;2024105;29;20489;-92
2023/06/08 03:44:21;;;;;;;17.08;8.90;;;;;;;;;;2024272;29;20157;-92
2023/06/08 03:45:21;;;;;;;20.35;10.13;;;;;;;;;;2031957;29;20499;-91
2023/06/08 03:46:22;;;;;;;16.05;8.15;;;;;;;;;;2031871;29;20028;-92
2023/06/08 03:47:22;;;;;;;14.90;7.63;;;;;;;;;;2023784;29;20304;-92
2023/06/08 03:48:23;;;;;;;14.10;8.02;;;;;;;;;;2031861;29;20027;-92
2023/06/08 03:49:24;;;;;;;13.88;7.18;;;;;;;;;;2031330;29;20164;-92
2023/06/08 03:50:25;;;;;;;7.90;5.63;;;;;;;;;;2031412;29;20035;-92
2023/06/08 03:51:25;;;;;;;11.65;6.03;;;;;;;;;;2032126;29;20477;-92
2023/06/08 03:52:26;;;;;;;14.15;6.15;;;;;;;;;;2031834;29;20491;-92
2023/06/08 03:53:26;;;;;;;8.35;5.00;;;;;;;;;;2031847;29;20032;-92
2023/06/08 03:54:27;;;;;;;9.68;5.32;;;;;;;;;;2031341;29;20114;-93
2023/06/08 03:55:28;;;;;;;8.97;4.70;;;;;;;;;;1683922;29;10248163;-92
2023/06/08 03:56:29;;;;;;;12.38;5.03;;;;;;;;;;2032880;29;20277;-91
2023/06/08 03:57:29;;;;;;;5.90;4.63;;;;;;;;;;2031752;29;20527;-90
2023/06/08 03:58:29;;;;;;;6.43;4.38;;;;;;;;;;2032544;29;20393;-91
2023/06/08 03:59:30;;;;;;;8.43;4.28;;;;;;;;;;2031557;29;20036;-92
2023/06/08 04:00:30;;;;;;;5.38;4.32;;;;;;;;;;2031809;29;20116;-93
2023/06/08 04:01:31;;;;;;;7.68;4.53;;;;;;;;;;2031727;29;20151;-92
2023/06/08 04:02:31;;;;;;;7.60;5.28;;;;;;;;;;2031535;29;20063;-92
2023/06/08 04:03:31;;;;;;;6.88;4.60;;;;;;;;;;2032312;29;20036;-91
2023/06/08 04:04:32;;;;;;;8.20;5.10;;;;;;;;;;2032400;29;20032;-91
2023/06/08 04:05:36;;;;;;;6.53;4.32;;;;;;;;;;2032487;29;20042;-91
2023/06/08 04:06:38;;;;;;;7.57;4.67;;;;;;;;;;1680709;29;10215264;-91
2023/06/08 04:07:40;;;;;;;6.22;4.97;;;;;;;;;;2026071;29;20115;-90
2023/06/08 04:08:41;;;;;;;7.00;4.88;;;;;;;;;;2033044;29;20028;-93
2023/06/08 04:09:42;;;;;;;11.25;4.57;;;;;;;;;;2024479;29;20039;-92
2023/06/08 04:10:42;;;;;;;7.22;4.90;;;;;;;;;;2023976;29;20028;-92
2023/06/08 04:11:43;;;;;;;6.50;4.95;;;;;;;;;;2024279;29;20410;-92
2023/06/08 04:12:43;;;;;;;7.28;5.05;;;;;;;;;;2024097;29;20036;-91
2023/06/08 04:13:44;;;;;;;8.88;5.18;;;;;;;;;;2023483;29;20039;-91
2023/06/08 04:14:45;;;;;;;6.32;4.60;;;;;;;;;;2023710;29;20406;-92
2023/06/08 04:15:45;;;;;;;9.65;4.57;;;;;;;;;;2034317;29;20062;-93
2023/06/08 04:16:46;;;;;;;7.95;4.63;;;;;;;;;;2036619;29;20036;-91
2023/06/08 04:17:49;;;;;;;8.50;4.75;;;;;;;;;;2041521;28;20020;-91
2023/06/08 04:18:49;;;;;;;8.05;4.82;;;;;;;;;;2035090;29;20052;-93
2023/06/08 04:19:50;;;;;;;7.13;5.18;;;;;;;;;;2032059;29;20416;-92
2023/06/08 04:20:50;;;;;;;8.98;4.68;;;;;;;;;;2032911;29;20499;-93
2023/06/08 04:21:56;;;;;;;7.47;4.97;;;;;;;;;;2032143;29;20052;-92
2023/06/08 04:22:57;;;;;;;7.88;5.57;;;;;;;;;;2031780;29;20484;-92
2023/06/08 04:23:57;;;;;;;7.18;4.93;;;;;;;;;;2024265;29;20052;-92
2023/06/08 04:24:57;;;;;;;10.48;5.70;;;;;;;;;;2025661;29;20028;-92
2023/06/08 04:25:58;;;;;;;10.82;6.38;;;;;;;;;;2033829;29;20099;-91
2023/06/08 04:26:58;;;;;;;8.32;5.13;;;;;;;;;;2034150;29;20035;-91
2023/06/08 04:27:59;;;;;;;8.35;5.47;;;;;;;;;;2034086;29;20032;-91
2023/06/08 04:29:00;;;;;;;9.35;5.80;;;;;;;;;;2033445;29;20032;-92
2023/06/08 04:30:02;;;;;;;7.82;5.88;;;;;;;;;;2035268;28;20107;-91
2023/06/08 04:31:04;;;;;;;7.95;5.18;;;;;;;;;;2043006;28;20029;-91
2023/06/08 04:32:05;;;;;;;10.30;6.25;;;;;;;;;;2036020;29;20028;-91
2023/06/08 04:33:05;;;;;;;8.85;5.38;;;;;;;;;;2035045;29;20017;-91
2023/06/08 04:34:06;;;;;;;9.10;6.00;;;;;;;;;;2031797;29;20033;-91
2023/06/08 04:35:07;;;;;;;10.48;5.78;;;;;;;;;;2037693;29;20035;-90
2023/06/08 04:36:07;;;;;;;8.75;5.45;;;;;;;;;;2026794;29;20088;-90
2023/06/08 04:37:07;;;;;;;9.65;5.82;;;;;;;;;;2034750;29;20035;-91
2023/06/08 04:38:15;;;;;;;11.25;6.03;;;;;;;;;;2033126;29;20112;-90
2023/06/08 04:39:15;;;;;;;8.77;5.60;;;;;;;;;;2033095;29;20058;-91
2023/06/08 04:40:16;;;;;;;8.60;6.45;;;;;;;;;;2033112;29;20520;-91
2023/06/08 04:41:18;;;;;;;12.10;6.47;;;;;;;;;;2033390;29;20086;-91
2023/06/08 04:42:19;;;;;;;11.80;6.55;;;;;;;;;;1856441;29;5000998;-91
2023/06/08 04:43:25;;;;;;;10.65;6.70;;;;;;;;;;2025113;29;20434;-92
2023/06/08 04:44:25;;;;;;;9.85;6.78;;;;;;;;;;2025802;29;20028;-90
2023/06/08 04:45:25;;;;;;;9.88;6.15;;;;;;;;;;2032818;29;20073;-90
2023/06/08 04:46:26;;;;;;;11.05;6.93;;;;;;;;;;2032850;29;20060;-91
2023/06/08 04:47:52;;;;;;;10.88;5.95;;;;;;;;;;2035683;29;20091;-92
2023/06/08 04:48:58;;;;;;;9.95;6.15;;;;;;;;;;2044602;28;20104;-92
2023/06/08 04:50:52;;;;;;;7.43;5.00;;;;;;;;;;2029006;29;20037;-91
2023/06/08 04:53:33;;;;;;;7.93;5.90;;;;;;;;;;2090556;23;20043;-88
2023/06/08 04:54:52;;;;;;;10.43;5.53;;;;;;;;;;2052386;28;20120;-88
2023/06/08 04:56:24;;;;;;;8.93;5.05;;;;;;;;;;2049673;29;20108;-88
2023/06/08 05:00:15;;;;;;;10.93;4.47;;;;;;;;;;1671357;29;10244993;-91
2023/06/08 05:01:16;;;;;;;9.75;5.20;;;;;;;;;;2017278;29;20037;-89
2023/06/08 05:02:16;;;;;;;7.25;5.30;;;;;;;;;;2017936;29;20033;-89
2023/06/08 05:03:17;;;;;;;7.57;4.97;;;;;;;;;;2018069;29;20035;-90
2023/06/08 05:04:17;;;;;;;8.10;4.90;;;;;;;;;;2018705;29;20502;-90
2023/06/08 05:05:18;;;;;;;9.68;5.15;;;;;;;;;;2018858;29;20063;-89
2023/06/08 05:06:18;;;;;;;8.52;5.20;;;;;;;;;;2018023;29;20536;-90
2023/06/08 05:07:19;;;;;;;8.45;5.22;;;;;;;;;;2018652;29;20084;-90
2023/06/08 05:08:20;;;;;;;8.95;4.97;;;;;;;;;;2025623;29;20049;-88
2023/06/08 05:09:20;;;;;;;9.47;5.10;;;;;;;;;;1679603;29;10135496;-90
2023/06/08 05:10:20;;;;;;;7.35;4.97;;;;;;;;;;2018132;29;20167;-91
2023/06/08 05:11:22;;;;;;;9.52;4.97;;;;;;;;;;2018377;29;20073;-90
2023/06/08 05:12:23;;;;;;;6.90;4.40;;;;;;;;;;2018309;29;20029;-90
2023/06/08 05:13:24;;;;;;;6.63;4.93;;;;;;;;;;2018510;29;20025;-89
2023/06/08 05:14:24;;;;;;;8.60;5.20;;;;;;;;;;2018866;29;20060;-89
2023/06/08 05:15:30;;;;;;;6.25;5.15;;;;;;;;;;1765711;29;10207241;-90
2023/06/08 05:16:31;;;;;;;6.47;4.85;;;;;;;;;;2017719;29;20246;-90
2023/06/08 05:17:31;;;;;;;9.20;5.25;;;;;;;;;;2017957;29;20136;-90
2023/06/08 05:18:31;;;;;;;7.00;3.95;;;;;;;;;;2017555;29;20175;-90
2023/06/08 05:19:32;;;;;;;8.50;4.63;;;;;;;;;;2017482;29;20507;-90
2023/06/08 05:20:32;;;;;;;5.90;3.95;;;;;;;;;;2010158;29;20037;-90
2023/06/08 05:21:33;;;;;;;9.25;4.78;;;;;;;;;;2017386;29;20407;-89
2023/06/08 05:22:33;;;;;;;15.32;7.10;;;;;;;;;;2025307;29;20028;-89
2023/06/08 05:23:34;;;;;;;18.02;8.20;;;;;;;;;;2018838;29;20044;-89
2023/06/08 05:24:34;;;;;;;10.68;7.28;;;;;;;;;;2017832;29;20033;-88
2023/06/08 05:25:36;;;;;;;12.30;7.10;;;;;;;;;;2017681;29;20467;-89
2023/06/08 05:26:39;;;;;;;11.18;6.10;;;;;;;;;;2017650;29;20060;-89
2023/06/08 05:27:39;;;;;;;9.30;5.90;;;;;;;;;;2017833;29;20024;-89
2023/06/08 05:28:50;;;;;;;11.98;6.78;;;;;;;;;;2019357;29;20040;-89
2023/06/08 05:29:50;;;;;;;10.75;6.85;;;;;;;;;;2017538;29;20029;-88
2023/06/08 05:30:51;;;;;;;12.05;7.90;;;;;;;;;;2017750;29;20060;-89
2023/06/08 05:31:51;;;;;;;9.88;7.43;;;;;;;;;;2017551;29;20382;-88
2023/06/08 05:32:51;;;;;;;13.77;7.93;;;;;;;;;;2009771;29;20157;-89
2023/06/08 05:33:52;;;;;;;15.93;8.05;;;;;;;;;;2018305;29;20044;-88
2023/06/08 05:34:52;;;;;;;14.52;7.07;;;;;;;;;;2018128;29;20264;-88
2023/06/08 05:35:54;;;;;;;12.40;7.60;;;;;;;;;;2018004;29;20491;-88
2023/06/08 05:36:55;;;;;;;11.65;7.10;;;;;;;;;;1654154;29;10834175;-88
2023/06/08 05:37:56;;;;;;;13.73;8.25;;;;;;;;;;1679716;29;10057347;-88
2023/06/08 05:38:56;;;;;;;12.75;7.65;;;;;;;;;;2018276;29;20032;-89
2023/06/08 05:39:57;;;;;;;12.00;6.90;;;;;;;;;;2019677;29;20036;-88
2023/06/08 05:40:57;;;;;;;9.00;5.60;;;;;;;;;;1329627;29;10465004;-90
2023/06/08 05:41:58;;;;;;;11.85;7.35;;;;;;;;;;2019226;29;20488;-91
2023/06/08 05:42:58;;;;;;;12.35;7.00;;;;;;;;;;2017560;29;20057;-90
2023/06/08 05:43:58;;;;;;;13.85;7.72;;;;;;;;;;2028600;29;20033;-91
2023/06/08 05:44:59;;;;;;;13.80;7.50;;;;;;;;;;2017249;29;20025;-91
2023/06/08 05:45:59;;;;;;;11.98;8.07;;;;;;;;;;2020610;29;20029;-91
2023/06/08 05:47:00;;;;;;;14.38;8.40;;;;;;;;;;2017677;29;20096;-91
2023/06/08 05:48:01;;;;;;;12.60;7.93;;;;;;;;;;2017074;29;20044;-91
2023/06/08 05:49:01;;;;;;;18.10;8.63;;;;;;;;;;2009368;29;20029;-90
2023/06/08 05:50:02;;;;;;;17.25;8.63;;;;;;;;;;2017100;29;20025;-90
2023/06/08 05:51:03;;;;;;;15.93;8.65;;;;;;;;;;2017868;29;20025;-91
2023/06/08 05:52:04;;;;;;;11.05;8.55;;;;;;;;;;2018289;29;20045;-92
2023/06/08 05:53:06;;;;;;;13.30;7.68;;;;;;;;;;1666019;29;10434184;-91
2023/06/08 05:54:07;;;;;;;15.98;7.65;;;;;;;;;;2017016;29;20041;-89
2023/06/08 05:55:07;;;;;;;15.20;7.35;;;;;;;;;;2017107;29;20052;-90
2023/06/08 05:56:08;;;;;;;11.60;7.50;;;;;;;;;;2017283;29;20539;-90
2023/06/08 05:57:08;;;;;;;11.50;7.03;;;;;;;;;;2024470;29;20025;-90
2023/06/08 05:58:10;;;;;;;13.48;7.72;;;;;;;;;;2019016;29;20032;-90
2023/06/08 05:59:11;;;;;;;14.35;7.20;;;;;;;;;;2026492;29;20028;-91
2023/06/08 06:00:12;;;;;;;10.38;7.13;;;;;;;;;;2017671;29;20080;-89
2023/06/08 06:01:13;;;;;;;11.05;7.35;;;;;;;;;;2017500;29;20024;-92
2023/06/08 06:02:13;;;;;;;11.20;6.82;;;;;;;;;;2020273;29;20025;-91
2023/06/08 06:03:17;;;;;;;11.88;6.10;;;;;;;;;;2026840;29;20060;-91
2023/06/08 06:04:23;;;;;;;15.00;5.80;;;;;;;;;;2027090;29;20093;-91
2023/06/08 06:05:44;;;;;;;10.00;6.18;;;;;;;;;;2017293;29;20040;-91
2023/06/08 06:06:44;;;;;;;8.75;5.68;;;;;;;;;;2016713;29;20040;-90
2023/06/08 06:07:45;;;;;;;10.38;6.38;;;;;;;;;;2016878;29;20033;-91
2023/06/08 06:08:45;;;;;;;7.43;5.07;;;;;;;;;;2016674;29;20100;-90
2023/06/08 06:09:46;;;;;;;9.93;5.60;;;;;;;;;;2016949;29;20085;-90
2023/06/08 06:10:46;;;;;;;6.85;5.32;;;;;;;;;;2016831;29;20085;-89
2023/06/08 06:11:47;;;;;;;8.05;5.18;;;;;;;;;;2017747;29;20050;-90
2023/06/08 06:12:47;;;;;;;8.52;5.85;;;;;;;;;;2017516;29;20024;-90
2023/06/08 06:13:48;;;;;;;8.90;5.68;;;;;;;;;;2017332;29;20043;-91
2023/06/08 06:14:52;;;;;;;7.32;5.43;;;;;;;;;;2024448;29;20024;-90
2023/06/08 06:15:52;;;;;;;9.27;5.93;;;;;;;;;;2016480;29;20032;-91
2023/06/08 06:16:53;;;;;;;7.50;5.68;;;;;;;;;;2016439;29;20073;-90